Time;durP1;ratioP1;P1;durP2;ratioP2;P2;SDS_P1;SDS_P2;PMS_P1;PMS_P2;Temp;Humidity;BMP_temperature;BMP_pressure;BME280_temperature;BME280_humidity;BME280_pressure;Samples;Min_cycle;Max_cycle;Signal;HPM_P1;HPM_P2
2022/07/30 00:02:22;;;;;;;4.87;4.50;;;20.30;99.90;;;;;;6147214;23;20764;-73
2022/07/30 00:04:49;;;;;;;5.83;5.43;;;20.30;99.90;;;;;;6146538;23;20405;-74
2022/07/30 00:07:16;;;;;;;5.00;4.70;;;20.30;99.90;;;;;;6148141;22;20402;-74
2022/07/30 00:09:45;;;;;;;5.27;4.87;;;20.20;99.90;;;;;;6148059;23;20445;-73
2022/07/30 00:12:12;;;;;;;5.13;4.80;;;20.20;99.90;;;;;;6149310;22;20402;-74
2022/07/30 00:14:39;;;;;;;5.23;4.93;;;20.20;99.90;;;;;;6147322;23;20450;-74
2022/07/30 00:17:06;;;;;;;6.13;5.70;;;20.20;99.90;;;;;;6146557;23;20423;-74
2022/07/30 00:19:33;;;;;;;6.03;5.53;;;20.20;99.90;;;;;;6148076;23;20976;-74
2022/07/30 00:22:00;;;;;;;6.60;6.10;;;19.90;99.90;;;;;;6147644;23;20889;-73
2022/07/30 00:24:27;;;;;;;5.77;5.33;;;20.10;99.90;;;;;;6146053;22;20761;-73
2022/07/30 00:26:55;;;;;;;5.80;5.40;;;20.10;99.90;;;;;;6148878;23;20473;-73
2022/07/30 00:29:22;;;;;;;5.30;5.00;;;20.00;99.90;;;;;;6148383;23;20450;-73
2022/07/30 00:31:50;;;;;;;5.33;5.03;;;20.00;99.90;;;;;;6148727;23;20804;-73
2022/07/30 00:34:17;;;;;;;5.20;4.80;;;19.90;99.90;;;;;;6148550;22;20764;-73
2022/07/30 00:36:44;;;;;;;5.40;4.40;;;19.90;99.90;;;;;;6148696;23;20393;-73
2022/07/30 00:39:11;;;;;;;5.20;4.67;;;19.90;99.90;;;;;;6145575;23;20552;-73
2022/07/30 00:41:55;;;;;;;4.90;4.50;;;19.80;99.90;;;;;;6148355;23;20736;-73
2022/07/30 00:44:23;;;;;;;5.00;4.60;;;19.70;99.90;;;;;;6147514;23;20401;-73
2022/07/30 00:46:50;;;;;;;4.30;4.00;;;19.60;99.90;;;;;;6148458;22;20480;-74
2022/07/30 00:49:17;;;;;;;4.47;4.10;;;19.60;99.90;;;;;;6148536;23;20464;-74
2022/07/30 00:51:44;;;;;;;4.73;4.43;;;19.50;99.90;;;;;;6148684;23;20495;-74
2022/07/30 00:54:11;;;;;;;4.07;3.83;;;19.50;99.90;;;;;;6146531;23;20414;-73
2022/07/30 00:56:39;;;;;;;4.40;4.00;;;19.50;99.90;;;;;;6149487;23;20428;-73
2022/07/30 00:59:07;;;;;;;4.37;4.07;;;19.50;99.90;;;;;;6147770;22;20837;-74
2022/07/30 01:01:35;;;;;;;4.40;4.00;;;19.50;99.90;;;;;;6148342;23;20417;-74
2022/07/30 01:04:02;;;;;;;4.70;4.40;;;19.50;99.90;;;;;;6147067;23;20485;-74
2022/07/30 01:06:29;;;;;;;4.30;4.00;;;19.50;99.90;;;;;;6148275;23;20401;-73
2022/07/30 01:08:56;;;;;;;4.63;4.33;;;19.50;99.90;;;;;;6147299;23;20425;-74
2022/07/30 01:11:28;;;;;;;4.50;4.20;;;19.50;99.90;;;;;;6148036;23;20402;-74
2022/07/30 01:13:56;;;;;;;4.50;4.20;;;19.50;99.90;;;;;;6147346;22;20417;-74
2022/07/30 01:16:24;;;;;;;4.60;4.30;;;19.50;99.90;;;;;;6148306;23;20401;-73
2022/07/30 01:21:41;;;;;;;4.40;4.10;;;19.50;99.90;;;;;;6147451;22;20398;-73
2022/07/30 01:24:23;;;;;;;4.30;4.00;;;19.50;99.90;;;;;;6148189;23;20465;-73
2022/07/30 01:26:52;;;;;;;4.90;4.40;;;19.50;99.90;;;;;;6147757;22;20497;-73
2022/07/30 01:29:19;;;;;;;4.90;4.50;;;19.50;99.90;;;;;;6148769;22;20401;-73
2022/07/30 01:31:49;;;;;;;4.23;4.00;;;19.50;99.90;;;;;;6147308;23;20957;-72
2022/07/30 01:34:17;;;;;;;5.17;4.87;;;19.40;99.90;;;;;;6147833;23;20489;-73
2022/07/30 01:36:46;;;;;;;5.30;4.80;;;19.50;99.90;;;;;;6147671;23;20421;-73
2022/07/30 01:39:15;;;;;;;4.10;3.80;;;19.50;99.90;;;;;;6147006;23;20449;-74
2022/07/30 01:41:46;;;;;;;5.00;4.70;;;19.40;99.90;;;;;;6147680;23;20432;-73
2022/07/30 01:44:16;;;;;;;5.03;4.70;;;19.40;99.90;;;;;;6148335;23;20878;-73
2022/07/30 01:46:44;;;;;;;4.60;4.30;;;19.30;99.90;;;;;;6148392;23;20509;-74
2022/07/30 01:49:12;;;;;;;5.07;4.67;;;19.30;99.90;;;;;;6147948;23;20432;-74
2022/07/30 01:51:39;;;;;;;4.90;4.60;;;19.20;99.90;;;;;;6147715;22;20410;-74
2022/07/30 01:54:09;;;;;;;4.73;4.33;;;19.20;99.90;;;;;;6148162;23;20905;-74
2022/07/30 01:56:38;;;;;;;4.57;4.27;;;19.20;99.90;;;;;;6148176;23;20422;-73
2022/07/30 01:59:07;;;;;;;4.47;4.17;;;19.20;99.90;;;;;;6147145;23;20917;-72
2022/07/30 02:01:37;;;;;;;4.60;4.30;;;19.20;99.90;;;;;;6147528;22;20410;-72
2022/07/30 02:04:04;;;;;;;5.37;4.97;;;19.10;99.90;;;;;;6148123;22;20402;-73
2022/07/30 02:06:35;;;;;;;4.90;4.50;;;19.10;99.90;;;;;;6148176;23;20425;-73
2022/07/30 02:09:06;;;;;;;4.60;4.20;;;19.00;99.90;;;;;;6147547;23;20469;-74
2022/07/30 02:14:41;;;;;;;4.60;4.30;;;18.90;99.90;;;;;;6028324;23;20420;-74
2022/07/30 02:17:17;;;;;;;4.70;4.40;;;18.90;99.90;;;;;;6124398;23;21169;-74
2022/07/30 02:19:46;;;;;;;4.77;4.33;;;18.90;99.90;;;;;;6146409;23;20534;-73
2022/07/30 02:22:15;;;;;;;4.80;4.50;;;18.80;99.90;;;;;;6146437;23;20416;-73
2022/07/30 02:24:43;;;;;;;5.27;4.87;;;18.70;99.90;;;;;;6147086;23;20482;-73
2022/07/30 02:27:22;;;;;;;5.43;5.10;;;18.70;99.90;;;;;;6148633;23;20465;-74
2022/07/30 02:29:52;;;;;;;5.10;4.80;;;18.70;99.90;;;;;;6147817;23;20752;-74
2022/07/30 02:32:23;;;;;;;4.70;4.40;;;18.60;99.90;;;;;;6147166;23;20441;-73
2022/07/30 02:34:55;;;;;;;5.50;4.30;;;18.60;99.90;;;;;;6148574;23;20413;-74
2022/07/30 02:37:24;;;;;;;4.70;4.40;;;18.60;99.90;;;;;;6148072;23;20457;-72
2022/07/30 02:39:53;;;;;;;4.90;4.60;;;18.60;99.90;;;;;;6146936;22;20445;-73
2022/07/30 02:42:21;;;;;;;4.10;3.83;;;18.60;99.90;;;;;;6146859;23;20907;-73
2022/07/30 02:44:50;;;;;;;5.07;4.77;;;18.50;99.90;;;;;;6117097;23;20782;-74
2022/07/30 02:47:19;;;;;;;5.17;4.83;;;18.50;99.90;;;;;;6116698;23;20407;-73
2022/07/30 02:49:48;;;;;;;4.90;4.60;;;18.50;99.90;;;;;;6118543;23;20790;-73
2022/07/30 02:52:17;;;;;;;6.00;5.63;;;18.50;99.90;;;;;;6118621;22;20433;-73
2022/07/30 02:54:46;;;;;;;5.73;5.30;;;18.40;99.90;;;;;;6119321;23;20839;-73
2022/07/30 02:57:15;;;;;;;5.67;5.27;;;18.40;99.90;;;;;;6117780;23;20766;-73
2022/07/30 02:59:44;;;;;;;6.00;5.50;;;18.30;99.90;;;;;;6117412;23;21004;-73
2022/07/30 03:02:13;;;;;;;5.50;5.10;;;18.20;99.90;;;;;;6118679;23;20497;-73
2022/07/30 03:04:42;;;;;;;6.23;5.73;;;18.30;99.90;;;;;;6118206;23;20521;-73
2022/07/30 03:07:11;;;;;;;6.00;5.60;;;18.30;99.90;;;;;;6117191;23;20400;-73
2022/07/30 03:09:41;;;;;;;5.70;5.30;;;18.30;99.90;;;;;;6116617;23;20509;-72
2022/07/30 03:12:10;;;;;;;5.70;5.30;;;18.40;99.90;;;;;;6118268;23;20405;-73
2022/07/30 03:14:38;;;;;;;6.00;5.33;;;18.40;99.90;;;;;;6119688;23;20406;-73
2022/07/30 03:17:07;;;;;;;7.13;5.30;;;18.50;99.90;;;;;;6117980;23;20417;-73
2022/07/30 03:19:37;;;;;;;6.00;5.60;;;18.60;99.90;;;;;;6119534;22;20446;-73
2022/07/30 03:22:08;;;;;;;6.20;5.70;;;18.60;99.90;;;;;;6117900;23;20448;-73
2022/07/30 03:24:38;;;;;;;5.50;5.00;;;18.60;99.90;;;;;;6118718;23;20518;-73
2022/07/30 03:27:06;;;;;;;6.27;5.60;;;18.70;99.90;;;;;;6117650;23;20475;-73
2022/07/30 03:29:34;;;;;;;6.73;5.60;;;18.70;99.90;;;;;;6119339;23;20441;-73
2022/07/30 03:32:01;;;;;;;5.87;5.33;;;18.70;99.90;;;;;;6117862;23;20403;-73
2022/07/30 03:34:31;;;;;;;5.80;5.23;;;18.70;99.90;;;;;;6119552;23;20450;-73
2022/07/30 03:36:59;;;;;;;5.60;5.20;;;18.70;99.90;;;;;;6118816;23;20404;-73
2022/07/30 03:39:26;;;;;;;6.20;5.60;;;18.90;99.90;;;;;;6119114;23;20794;-73
2022/07/30 03:41:56;;;;;;;5.63;5.13;;;18.70;99.90;;;;;;6119337;23;20438;-73
2022/07/30 03:44:23;;;;;;;6.17;5.20;;;18.80;99.90;;;;;;6118103;23;20418;-73
2022/07/30 03:46:53;;;;;;;5.67;5.17;;;18.80;99.90;;;;;;6119618;23;20399;-73
2022/07/30 03:49:22;;;;;;;4.80;4.50;;;18.90;99.90;;;;;;6119655;22;20764;-72
2022/07/30 03:51:51;;;;;;;6.17;5.67;;;18.90;99.90;;;;;;6119534;23;20410;-73
2022/07/30 03:54:18;;;;;;;5.67;5.20;;;18.90;99.90;;;;;;6119338;23;20433;-73
2022/07/30 03:56:46;;;;;;;5.70;5.30;;;18.90;99.90;;;;;;6117907;23;20921;-73
2022/07/30 03:59:17;;;;;;;5.97;4.83;;;18.90;99.90;;;;;;6119760;23;20445;-73
2022/07/30 04:01:44;;;;;;;5.70;5.20;;;19.00;99.90;;;;;;6118909;23;20391;-73
2022/07/30 04:04:11;;;;;;;6.53;5.40;;;19.00;99.90;;;;;;6119379;23;20473;-73
2022/07/30 04:06:41;;;;;;;5.70;5.20;;;19.00;99.90;;;;;;6119847;23;20399;-73
2022/07/30 04:09:09;;;;;;;5.20;4.80;;;19.00;99.90;;;;;;6119597;23;20718;-73
2022/07/30 04:11:37;;;;;;;4.90;4.50;;;19.00;99.90;;;;;;6119149;23;20441;-73
2022/07/30 04:14:04;;;;;;;5.83;5.33;;;19.00;99.90;;;;;;6118715;23;20426;-73
2022/07/30 04:16:37;;;;;;;4.93;4.50;;;19.00;99.90;;;;;;6119955;22;20418;-73
2022/07/30 04:19:08;;;;;;;5.37;4.87;;;19.00;99.90;;;;;;6120162;23;20427;-73
2022/07/30 04:21:37;;;;;;;6.03;5.40;;;19.00;99.90;;;;;;6119593;23;20494;-73
2022/07/30 04:24:06;;;;;;;5.80;5.30;;;19.00;99.90;;;;;;6119046;23;20458;-73
2022/07/30 04:26:35;;;;;;;5.40;5.00;;;18.90;99.90;;;;;;6118634;23;20394;-73
2022/07/30 04:29:05;;;;;;;6.37;5.77;;;18.90;99.90;;;;;;6119745;22;20403;-73
2022/07/30 04:31:34;;;;;;;6.20;5.70;;;18.90;99.90;;;;;;6119741;23;20735;-73
2022/07/30 04:34:02;;;;;;;6.33;5.70;;;18.90;99.90;;;;;;6118611;22;20430;-73
2022/07/30 04:36:29;;;;;;;5.30;4.83;;;18.90;99.90;;;;;;6120608;22;20400;-73
2022/07/30 04:38:57;;;;;;;6.37;5.30;;;18.80;99.90;;;;;;6120880;22;20422;-74
2022/07/30 04:41:25;;;;;;;4.80;4.43;;;18.80;99.90;;;;;;6119043;22;20418;-73
2022/07/30 04:43:52;;;;;;;5.63;5.13;;;18.80;99.90;;;;;;6119450;23;20436;-73
2022/07/30 04:46:20;;;;;;;6.20;5.70;;;18.80;99.90;;;;;;6118813;22;20410;-72
2022/07/30 04:48:48;;;;;;;5.97;5.37;;;18.80;99.90;;;;;;6120598;22;20399;-73
2022/07/30 04:51:21;;;;;;;5.83;5.30;;;18.90;99.90;;;;;;6119578;23;20773;-73
2022/07/30 04:53:50;;;;;;;6.60;5.93;;;19.00;99.90;;;;;;6120389;23;20426;-73
2022/07/30 04:56:18;;;;;;;6.43;5.90;;;18.90;99.90;;;;;;6118018;22;20413;-73
2022/07/30 04:58:46;;;;;;;5.73;5.23;;;18.80;99.90;;;;;;6221298;23;20403;-73
2022/07/30 05:01:18;;;;;;;5.90;5.40;;;18.80;99.90;;;;;;6119150;23;20851;-72
2022/07/30 05:03:48;;;;;;;6.20;5.60;;;18.80;99.90;;;;;;6120100;23;20446;-72
2022/07/30 05:06:17;;;;;;;6.30;5.70;;;18.90;99.90;;;;;;6118252;23;20403;-72
2022/07/30 05:08:44;;;;;;;5.70;5.20;;;19.00;99.90;;;;;;6119639;22;20406;-73
2022/07/30 05:11:12;;;;;;;6.00;5.50;;;19.00;99.90;;;;;;6119308;22;20431;-73
2022/07/30 05:13:41;;;;;;;5.43;4.90;;;19.00;99.90;;;;;;6119190;23;20451;-73
2022/07/30 05:16:08;;;;;;;5.90;5.30;;;19.10;99.90;;;;;;6119248;23;20755;-73
2022/07/30 05:18:35;;;;;;;5.60;5.10;;;19.10;99.90;;;;;;6119556;23;20406;-74
2022/07/30 05:21:04;;;;;;;5.63;5.23;;;19.20;99.90;;;;;;6120160;23;20522;-73
2022/07/30 05:23:31;;;;;;;5.10;4.70;;;19.20;99.90;;;;;;6120055;23;20419;-73
2022/07/30 05:25:59;;;;;;;5.97;5.47;;;19.30;99.90;;;;;;6117452;22;20918;-73
2022/07/30 05:28:26;;;;;;;6.30;5.80;;;19.30;99.90;;;;;;6120067;23;20669;-73
2022/07/30 05:30:53;;;;;;;5.67;5.27;;;19.40;99.90;;;;;;6121011;23;20399;-73
2022/07/30 05:33:20;;;;;;;6.27;5.67;;;19.40;99.90;;;;;;6119701;23;20434;-73
2022/07/30 05:35:47;;;;;;;6.80;4.50;;;19.50;99.90;;;;;;6120748;22;20407;-73
2022/07/30 05:38:18;;;;;;;5.60;5.10;;;19.60;99.90;;;;;;6115741;23;20395;-74
2022/07/30 05:40:46;;;;;;;5.67;5.27;;;19.60;99.90;;;;;;6118574;23;20451;-73
2022/07/30 05:43:13;;;;;;;5.97;5.20;;;19.70;99.90;;;;;;6113322;23;20476;-74
2022/07/30 05:45:40;;;;;;;5.70;5.20;;;19.80;99.90;;;;;;6116201;23;20412;-73
2022/07/30 05:48:07;;;;;;;6.20;5.57;;;19.90;99.90;;;;;;6117394;23;20452;-73
2022/07/30 05:50:34;;;;;;;5.53;5.10;;;20.00;99.90;;;;;;6116175;23;20399;-73
2022/07/30 05:53:01;;;;;;;5.93;5.33;;;20.10;99.90;;;;;;6116380;23;20802;-73
2022/07/30 05:55:30;;;;;;;5.07;4.70;;;20.20;99.90;;;;;;6114746;23;20406;-74
2022/07/30 05:57:57;;;;;;;5.67;5.10;;;20.20;99.90;;;;;;6116913;23;20412;-74
2022/07/30 06:00:24;;;;;;;5.60;5.10;;;20.40;99.90;;;;;;6117720;23;20524;-74
2022/07/30 06:02:52;;;;;;;5.20;4.80;;;20.50;99.90;;;;;;6115700;23;20490;-73
2022/07/30 06:05:19;;;;;;;5.20;4.70;;;20.60;99.90;;;;;;6117510;23;20456;-73
2022/07/30 06:07:46;;;;;;;5.80;5.10;;;20.70;99.90;;;;;;6117826;22;20399;-73
2022/07/30 06:10:14;;;;;;;5.23;4.60;;;20.80;99.90;;;;;;6118297;22;20410;-76
2022/07/30 06:12:42;;;;;;;5.80;5.30;;;20.90;99.90;;;;;;6116442;23;20720;-73
2022/07/30 06:15:10;;;;;;;4.67;4.37;;;21.00;99.90;;;;;;6115358;23;20418;-72
2022/07/30 06:17:42;;;;;;;4.83;4.40;;;21.00;99.90;;;;;;6118016;23;20386;-72
2022/07/30 06:20:10;;;;;;;5.93;5.33;;;21.10;99.90;;;;;;6116791;23;20602;-71
2022/07/30 06:22:37;;;;;;;6.23;5.70;;;21.20;99.90;;;;;;6118090;23;21114;-72
2022/07/30 06:25:05;;;;;;;8.60;5.50;;;21.30;99.90;;;;;;6116074;23;20420;-72
2022/07/30 06:27:33;;;;;;;5.53;5.10;;;21.30;99.90;;;;;;6117140;22;20406;-72
2022/07/30 06:30:02;;;;;;;5.13;4.73;;;21.40;99.90;;;;;;6116081;22;20408;-72
2022/07/30 06:32:29;;;;;;;5.23;4.73;;;21.40;99.90;;;;;;6115257;23;20422;-72
2022/07/30 06:34:56;;;;;;;4.47;4.17;;;21.40;99.90;;;;;;6115860;23;20418;-73
2022/07/30 06:37:23;;;;;;;5.00;4.60;;;21.50;99.90;;;;;;6116538;23;20387;-74
2022/07/30 06:39:50;;;;;;;5.30;4.17;;;21.60;99.90;;;;;;6115726;23;20437;-73
2022/07/30 06:42:17;;;;;;;4.10;3.80;;;21.70;99.90;;;;;;6113627;23;20427;-73
2022/07/30 06:44:44;;;;;;;5.10;4.60;;;21.80;99.90;;;;;;6115058;23;20490;-73
2022/07/30 06:47:13;;;;;;;6.33;4.47;;;21.90;99.90;;;;;;6117052;23;20459;-73
2022/07/30 06:49:40;;;;;;;4.67;4.20;;;22.00;99.90;;;;;;6114806;23;20455;-73
2022/07/30 06:52:07;;;;;;;5.67;4.50;;;22.10;99.90;;;;;;6117413;23;20462;-73
2022/07/30 06:54:34;;;;;;;5.43;4.90;;;22.30;99.90;;;;;;6112098;23;20407;-75
2022/07/30 06:57:01;;;;;;;5.93;4.33;;;22.30;99.90;;;;;;6115079;23;20391;-72
2022/07/30 06:59:28;;;;;;;7.03;4.90;;;22.40;99.90;;;;;;6113882;23;20399;-72
2022/07/30 07:01:56;;;;;;;5.40;4.90;;;22.40;99.90;;;;;;6116887;23;20446;-72
2022/07/30 07:04:24;;;;;;;5.07;4.60;;;22.50;99.90;;;;;;6114116;23;20461;-72
2022/07/30 07:06:52;;;;;;;5.13;4.47;;;22.50;99.90;;;;;;6113622;23;20403;-73
2022/07/30 07:09:19;;;;;;;4.97;4.50;;;22.60;99.90;;;;;;6112124;23;20410;-71
2022/07/30 07:11:46;;;;;;;6.20;5.60;;;22.70;99.90;;;;;;6113192;23;20391;-73
2022/07/30 07:14:13;;;;;;;5.90;4.67;;;22.80;99.90;;;;;;6117241;23;20478;-72
2022/07/30 07:16:40;;;;;;;6.20;4.53;;;22.90;99.90;;;;;;6117418;23;20513;-72
2022/07/30 07:19:07;;;;;;;4.07;3.77;;;23.00;99.90;;;;;;6117616;22;20495;-72
2022/07/30 07:21:36;;;;;;;6.10;4.30;;;23.20;99.90;;;;;;6116462;23;20446;-72
2022/07/30 07:24:03;;;;;;;5.97;4.40;;;23.40;99.90;;;;;;6117308;23;20398;-71
2022/07/30 07:26:31;;;;;;;6.00;4.17;;;23.60;99.90;;;;;;6114892;23;21107;-73
2022/07/30 07:29:16;;;;;;;5.83;4.17;;;23.80;99.90;;;;;;6115115;23;20426;-73
2022/07/30 07:31:44;;;;;;;5.33;3.73;;;24.00;99.90;;;;;;6118871;22;20424;-73
2022/07/30 07:34:11;;;;;;;4.60;4.17;;;24.30;99.90;;;;;;6119779;22;20410;-73
2022/07/30 07:36:39;;;;;;;4.87;4.37;;;24.60;99.90;;;;;;6118784;22;20977;-73
2022/07/30 07:42:10;;;;;;;5.60;5.07;;;25.20;99.90;;;;;;5781742;22;20710;-73
2022/07/30 07:44:37;;;;;;;5.03;4.60;;;25.60;99.30;;;;;;6105548;23;20434;-73
2022/07/30 07:47:04;;;;;;;4.30;3.90;;;25.90;98.30;;;;;;6114746;22;20488;-72
2022/07/30 07:49:31;;;;;;;4.77;4.37;;;26.10;97.70;;;;;;6115528;23;20536;-73
2022/07/30 07:52:00;;;;;;;4.73;4.27;;;26.40;96.80;;;;;;6117410;23;20976;-74
2022/07/30 07:54:27;;;;;;;4.40;4.00;;;26.40;95.90;;;;;;6115470;23;20484;-74
2022/07/30 07:56:55;;;;;;;4.10;3.80;;;26.50;95.90;;;;;;6116877;23;20485;-74
2022/07/30 07:59:23;;;;;;;5.13;3.83;;;26.60;95.30;;;;;;6118911;23;20432;-73
2022/07/30 08:01:50;;;;;;;5.70;3.97;;;26.80;94.80;;;;;;6114305;23;20438;-72
2022/07/30 08:04:17;;;;;;;3.97;3.33;;;27.00;94.60;;;;;;6114678;23;20430;-73
2022/07/30 08:07:11;;;;;;;4.10;3.50;;;27.30;94.00;;;;;;6115037;23;20426;-73
2022/07/30 08:10:03;;;;;;;4.47;3.60;;;27.50;93.40;;;;;;6115524;23;20488;-72
2022/07/30 08:12:56;;;;;;;5.10;3.53;;;27.80;92.50;;;;;;6116562;23;20449;-72
2022/07/30 08:15:47;;;;;;;4.10;3.70;;;27.90;91.90;;;;;;6117109;23;20387;-72
2022/07/30 08:18:39;;;;;;;4.40;4.00;;;27.80;90.10;;;;;;6116325;23;20393;-72
2022/07/30 08:21:31;;;;;;;4.00;3.70;;;27.80;88.80;;;;;;6117710;23;20601;-72
2022/07/30 08:24:25;;;;;;;3.50;3.20;;;27.80;87.40;;;;;;6117603;23;20445;-72
2022/07/30 08:27:17;;;;;;;3.23;2.90;;;27.80;87.50;;;;;;6116113;23;20431;-73
2022/07/30 08:30:11;;;;;;;4.47;4.10;;;28.10;87.10;;;;;;6116696;23;20985;-72
2022/07/30 08:33:04;;;;;;;3.83;3.47;;;28.40;85.80;;;;;;6116546;23;21113;-74
2022/07/30 08:35:55;;;;;;;4.77;3.53;;;28.60;84.60;;;;;;6116718;23;20390;-73
2022/07/30 08:38:47;;;;;;;4.30;3.30;;;28.70;84.00;;;;;;6118519;23;20370;-73
2022/07/30 08:41:41;;;;;;;3.63;3.33;;;28.90;83.90;;;;;;6113292;23;20442;-73
2022/07/30 08:47:17;;;;;;;4.13;3.57;;;29.30;80.70;;;;;;6092122;22;20797;-72
2022/07/30 08:50:10;;;;;;;4.60;3.00;;;29.50;79.00;;;;;;6110978;23;20887;-74
2022/07/30 08:53:08;;;;;;;4.70;3.63;;;29.70;77.50;;;;;;6087264;22;20569;-71
2022/07/30 08:56:01;;;;;;;5.53;3.40;;;29.90;74.60;;;;;;6120554;23;20445;-84
2022/07/30 08:58:32;;;;;;;4.20;3.77;;;30.10;75.90;;;;;;6119412;23;20442;-84
2022/07/30 09:00:59;;;;;;;2.90;2.70;;;30.10;73.70;;;;;;6118580;23;20441;-73
2022/07/30 09:03:27;;;;;;;2.70;2.50;;;30.20;74.80;;;;;;6118167;23;20430;-73
2022/07/30 09:05:54;;;;;;;3.63;3.33;;;30.30;74.00;;;;;;6119787;23;20383;-74
2022/07/30 09:08:21;;;;;;;3.90;3.53;;;30.50;72.60;;;;;;6116198;23;20456;-73
2022/07/30 09:10:49;;;;;;;3.97;3.57;;;30.50;69.80;;;;;;6118895;23;20726;-73
2022/07/30 09:13:27;;;;;;;3.20;2.90;;;30.50;69.80;;;;;;6117059;23;20423;-73
2022/07/30 09:15:56;;;;;;;5.93;3.40;;;30.50;70.30;;;;;;6117928;23;20390;-73
2022/07/30 09:18:28;;;;;;;6.37;3.27;;;30.60;69.00;;;;;;6117524;22;20395;-73
2022/07/30 09:20:55;;;;;;;3.27;3.03;;;30.40;67.70;;;;;;6117795;22;20431;-73
2022/07/30 09:23:22;;;;;;;5.47;3.00;;;30.20;68.70;;;;;;6117597;23;20457;-73
2022/07/30 09:25:50;;;;;;;3.23;3.03;;;30.30;69.90;;;;;;6115917;23;20417;-73
2022/07/30 09:28:28;;;;;;;2.93;2.73;;;30.60;68.50;;;;;;6117299;22;20413;-72
2022/07/30 09:30:57;;;;;;;3.30;2.90;;;30.60;68.20;;;;;;6118145;23;20445;-74
2022/07/30 09:33:36;;;;;;;3.90;2.87;;;30.70;68.50;;;;;;6116058;23;20395;-73
2022/07/30 09:36:08;;;;;;;4.80;3.03;;;30.50;67.30;;;;;;6119440;23;20415;-74
2022/07/30 09:38:47;;;;;;;2.83;2.63;;;30.20;69.20;;;;;;6114497;23;20402;-73
2022/07/30 09:41:15;;;;;;;3.97;3.10;;;30.20;68.70;;;;;;6118122;23;20434;-73
2022/07/30 09:43:44;;;;;;;3.73;3.40;;;30.30;67.10;;;;;;6117465;23;20414;-73
2022/07/30 09:46:13;;;;;;;4.00;3.60;;;29.90;66.70;;;;;;6116309;23;20493;-72
2022/07/30 09:48:41;;;;;;;3.73;3.43;;;29.40;67.20;;;;;;6118059;23;20999;-71
2022/07/30 09:51:08;;;;;;;4.33;3.00;;;28.80;69.40;;;;;;6118221;23;20459;-72
2022/07/30 09:53:36;;;;;;;3.60;3.23;;;28.20;69.30;;;;;;6118712;22;20395;-72
2022/07/30 09:56:24;;;;;;;3.17;2.90;;;27.60;70.80;;;;;;6115525;22;20411;-72
2022/07/30 09:58:51;;;;;;;3.20;2.90;;;27.50;71.70;;;;;;6119107;23;20765;-72
2022/07/30 10:01:20;;;;;;;3.77;3.10;;;27.90;72.20;;;;;;6118644;23;20458;-72
2022/07/30 10:03:47;;;;;;;7.63;2.57;;;28.40;68.30;;;;;;6118331;23;20414;-73
2022/07/30 10:06:14;;;;;;;2.87;2.67;;;28.20;67.90;;;;;;6118116;23;20469;-72
2022/07/30 10:08:43;;;;;;;3.00;2.80;;;28.30;69.00;;;;;;6119418;22;20434;-72
2022/07/30 10:11:12;;;;;;;3.20;2.90;;;28.50;68.90;;;;;;6117428;23;20597;-72
2022/07/30 10:13:40;;;;;;;3.33;2.90;;;28.80;67.70;;;;;;6118062;23;20391;-72
2022/07/30 10:16:08;;;;;;;3.27;2.80;;;28.90;68.20;;;;;;6117488;23;20431;-72
2022/07/30 10:18:37;;;;;;;4.20;3.07;;;29.30;67.70;;;;;;6119382;23;20395;-73
2022/07/30 10:21:05;;;;;;;2.30;2.10;;;29.60;65.40;;;;;;6118929;22;20442;-73
2022/07/30 10:23:34;;;;;;;2.90;2.60;;;29.80;66.00;;;;;;6116809;23;20726;-72
2022/07/30 10:26:02;;;;;;;3.30;2.50;;;29.70;66.10;;;;;;6115011;23;20885;-72
2022/07/30 10:28:31;;;;;;;2.73;2.53;;;29.40;65.00;;;;;;6116968;23;20878;-73
2022/07/30 10:30:59;;;;;;;3.53;2.83;;;29.50;67.10;;;;;;6118591;23;20426;-72
2022/07/30 10:33:28;;;;;;;2.77;2.50;;;29.70;65.80;;;;;;6115513;23;20410;-73
2022/07/30 10:35:57;;;;;;;2.73;2.53;;;30.00;64.00;;;;;;6115498;22;20458;-72
2022/07/30 10:38:31;;;;;;;2.57;2.37;;;30.00;64.00;;;;;;6118066;23;20434;-73
2022/07/30 10:41:04;;;;;;;2.53;2.33;;;30.30;64.00;;;;;;6117882;23;20433;-71
2022/07/30 10:44:01;;;;;;;3.20;2.90;;;30.50;62.50;;;;;;6116841;23;20411;-72
2022/07/30 10:46:43;;;;;;;3.30;2.37;;;30.40;62.60;;;;;;6117445;23;20483;-71
2022/07/30 10:49:11;;;;;;;3.20;2.57;;;30.40;62.00;;;;;;6115037;22;20751;-71
2022/07/30 10:51:48;;;;;;;3.60;2.20;;;30.60;62.60;;;;;;6119412;23;20470;-71
2022/07/30 10:54:38;;;;;;;2.80;2.60;;;30.80;62.40;;;;;;6117789;23;20951;-71
2022/07/30 10:57:10;;;;;;;3.67;2.67;;;31.10;61.80;;;;;;6117613;22;20456;-72
2022/07/30 11:00:10;;;;;;;2.33;2.13;;;31.30;60.40;;;;;;6119114;23;20457;-71
2022/07/30 11:02:37;;;;;;;3.97;2.93;;;31.40;61.70;;;;;;6119821;23;20756;-72
2022/07/30 11:05:27;;;;;;;2.97;2.67;;;31.70;58.50;;;;;;6119099;23;20407;-71
2022/07/30 11:08:15;;;;;;;2.50;2.30;;;31.60;59.40;;;;;;6117497;23;20431;-71
2022/07/30 11:10:54;;;;;;;2.30;2.10;;;31.80;59.40;;;;;;6117617;22;20451;-71
2022/07/30 11:13:48;;;;;;;2.47;2.03;;;32.20;57.90;;;;;;6116443;22;20403;-71
2022/07/30 11:16:18;;;;;;;2.90;2.53;;;32.50;58.00;;;;;;6116188;22;20411;-71
2022/07/30 11:19:06;;;;;;;2.53;2.30;;;32.70;57.10;;;;;;6111378;23;20383;-72
2022/07/30 11:21:34;;;;;;;2.47;1.93;;;32.80;57.60;;;;;;6116569;22;20929;-71
2022/07/30 11:24:03;;;;;;;2.90;2.13;;;32.80;56.80;;;;;;6113717;22;20427;-71
2022/07/30 11:26:50;;;;;;;2.57;2.30;;;32.80;56.50;;;;;;6113704;23;20403;-72
2022/07/30 11:29:34;;;;;;;2.07;1.90;;;33.00;56.20;;;;;;6116092;23;20430;-72
2022/07/30 11:32:29;;;;;;;2.50;2.10;;;33.10;54.30;;;;;;6117112;23;20390;-71
2022/07/30 11:35:17;;;;;;;4.23;1.90;;;33.00;52.00;;;;;;6117424;22;20434;-72
2022/07/30 11:38:14;;;;;;;2.00;1.90;;;32.60;52.10;;;;;;6116883;22;20391;-71
2022/07/30 11:41:10;;;;;;;5.63;1.83;;;32.00;52.10;;;;;;6132667;23;20442;-71
2022/07/30 11:43:40;;;;;;;2.80;1.70;;;31.40;54.00;;;;;;6116943;22;20891;-71
2022/07/30 11:46:09;;;;;;;1.90;1.80;;;31.40;55.00;;;;;;6116099;23;20395;-71
2022/07/30 11:48:39;;;;;;;3.40;2.07;;;31.70;54.50;;;;;;6115328;23;20500;-72
2022/07/30 11:51:07;;;;;;;2.57;1.80;;;32.00;53.20;;;;;;6117898;23;20395;-71
2022/07/30 11:53:35;;;;;;;3.63;2.07;;;32.20;53.30;;;;;;6116330;22;20878;-72
2022/07/30 11:56:04;;;;;;;2.60;1.93;;;32.20;53.50;;;;;;6117662;23;20422;-71
2022/07/30 11:58:35;;;;;;;1.80;1.70;;;32.30;53.90;;;;;;6113645;23;20917;-71
2022/07/30 12:01:05;;;;;;;2.67;1.90;;;32.40;54.10;;;;;;6119209;23;20387;-72
2022/07/30 12:03:32;;;;;;;2.83;2.27;;;32.80;54.20;;;;;;6117335;23;20446;-72
2022/07/30 12:06:04;;;;;;;2.43;2.23;;;33.00;53.00;;;;;;6117798;22;20387;-71
2022/07/30 12:08:41;;;;;;;5.00;2.03;;;33.00;53.40;;;;;;6116946;22;20509;-72
2022/07/30 12:11:08;;;;;;;2.50;2.30;;;33.20;52.40;;;;;;6116267;23;20877;-72
2022/07/30 12:13:37;;;;;;;2.47;2.27;;;32.50;53.00;;;;;;6117213;23;20893;-87
2022/07/30 12:16:08;;;;;;;2.37;2.10;;;31.80;53.40;;;;;;6220392;23;20407;-72
2022/07/30 12:18:36;;;;;;;2.07;1.93;;;31.60;55.20;;;;;;6116155;23;20944;-73
2022/07/30 12:21:07;;;;;;;2.47;2.27;;;31.80;54.70;;;;;;6119342;23;20387;-73
2022/07/30 12:23:36;;;;;;;2.60;2.23;;;31.60;53.40;;;;;;6114588;23;20446;-73
2022/07/30 12:26:04;;;;;;;4.80;2.43;;;31.60;54.80;;;;;;6119011;22;20494;-72
2022/07/30 12:28:33;;;;;;;2.03;1.83;;;31.70;54.40;;;;;;6119334;23;20419;-73
2022/07/30 12:31:03;;;;;;;2.00;1.90;;;32.00;55.30;;;;;;6119168;23;20418;-73
2022/07/30 12:33:31;;;;;;;2.97;1.90;;;32.40;54.50;;;;;;6119256;23;20435;-73
2022/07/30 12:35:59;;;;;;;2.20;2.00;;;32.70;54.90;;;;;;6117283;23;20797;-74
2022/07/30 12:38:28;;;;;;;3.20;2.30;;;33.00;53.40;;;;;;6119236;22;20446;-73
2022/07/30 12:41:00;;;;;;;2.77;2.13;;;33.30;52.80;;;;;;6116530;23;20398;-73
2022/07/30 12:43:47;;;;;;;2.23;2.10;;;33.10;52.80;;;;;;6117264;23;20517;-74
2022/07/30 12:46:18;;;;;;;4.00;1.90;;;33.30;52.00;;;;;;6117028;22;20391;-73
2022/07/30 12:48:54;;;;;;;2.37;2.17;;;33.10;52.10;;;;;;6118260;23;20423;-73
2022/07/30 12:51:23;;;;;;;2.97;1.97;;;32.80;53.20;;;;;;6121763;23;20403;-73
2022/07/30 12:53:51;;;;;;;2.47;2.27;;;32.80;53.00;;;;;;6117201;22;20730;-74
2022/07/30 12:56:21;;;;;;;2.57;2.00;;;32.70;52.60;;;;;;6116333;23;20419;-74
2022/07/30 12:58:48;;;;;;;2.23;2.00;;;32.80;53.20;;;;;;6120144;23;20406;-73
2022/07/30 13:01:17;;;;;;;3.43;2.30;;;33.00;52.10;;;;;;6115674;22;20410;-73
2022/07/30 13:03:45;;;;;;;2.50;2.30;;;32.80;54.00;;;;;;6117914;23;20462;-73
2022/07/30 13:06:14;;;;;;;2.90;2.40;;;32.80;53.00;;;;;;6118581;23;20437;-74
2022/07/30 13:08:49;;;;;;;3.43;2.30;;;33.00;52.60;;;;;;6119514;23;20406;-74
2022/07/30 13:11:18;;;;;;;3.43;2.10;;;33.30;53.60;;;;;;6118835;22;20455;-73
2022/07/30 13:13:45;;;;;;;2.17;1.97;;;33.50;51.20;;;;;;6118021;23;20411;-74
2022/07/30 13:16:13;;;;;;;3.20;2.10;;;33.50;52.00;;;;;;6117132;23;20397;-74
2022/07/30 13:18:41;;;;;;;2.20;2.07;;;33.60;52.20;;;;;;6118549;23;20414;-74
2022/07/30 13:21:10;;;;;;;3.40;1.90;;;33.70;51.50;;;;;;6117281;23;20831;-74